Weather at F. D. Roosevelt Airport

Public forecast

Using degrees Celsius for public forecast. Weather courtesy of forecast.io.

Current aviation weather report (METAR) for F. D. Roosevelt Airport

Retrieved 2021/06/15 05:55 UTC (1 hour ago):

TNCE 150555Z AUTO 07016KT 030V100 //// // ///////// 27/23 Q1017 RE//

Closest aviation forecast (TAF) to F. D. Roosevelt Airport

Closest forecast is Robert L. Bradshaw International Airport, 18.6 nm (34.5 km) SE. Retrieved 2021/06/15 06:03 UTC (56 minutes ago):

TAF TKPK 150539Z 1506/1606 07014KT P6SM VCSH SCT018 SCT035 FM151400 08015KT P6SM FEW022 AMD NOT SKED TIL 151100